sensor_id;sensor_type;location;lat;lon;timestamp;pressure;altitude;pressure_sealevel;temperature;humidity
63019;BME280;49105;46.046;10.760;2023-03-26T00:01:37;95252.19;;;7.25;48.42
63019;BME280;49105;46.046;10.760;2023-03-26T00:04:09;95248.22;;;7.12;48.45
63019;BME280;49105;46.046;10.760;2023-03-26T00:06:36;95245.53;;;7.07;48.68
63019;BME280;49105;46.046;10.760;2023-03-26T00:09:10;95264.50;;;7.09;48.53
63019;BME280;49105;46.046;10.760;2023-03-26T00:11:46;95258.75;;;7.17;48.22
63019;BME280;49105;46.046;10.760;2023-03-26T00:14:21;95254.78;;;7.20;48.29
63019;BME280;49105;46.046;10.760;2023-03-26T00:16:59;95253.75;;;7.16;48.45
63019;BME280;49105;46.046;10.760;2023-03-26T00:19:31;95262.09;;;6.97;48.75
63019;BME280;49105;46.046;10.760;2023-03-26T00:22:02;95258.41;;;6.88;48.95
63019;BME280;49105;46.046;10.760;2023-03-26T00:24:36;95253.13;;;6.88;49.11
63019;BME280;49105;46.046;10.760;2023-03-26T00:27:03;95262.63;;;6.94;48.97
63019;BME280;49105;46.046;10.760;2023-03-26T00:29:33;95269.41;;;6.80;49.06
63019;BME280;49105;46.046;10.760;2023-03-26T00:32:00;95277.75;;;6.62;49.29
63019;BME280;49105;46.046;10.760;2023-03-26T00:34:26;95267.19;;;6.57;49.30
63019;BME280;49105;46.046;10.760;2023-03-26T00:36:51;95276.66;;;6.53;49.62
63019;BME280;49105;46.046;10.760;2023-03-26T00:39:21;95276.59;;;6.42;49.81
63019;BME280;49105;46.046;10.760;2023-03-26T00:41:57;95278.47;;;6.47;49.62
63019;BME280;49105;46.046;10.760;2023-03-26T00:44:35;95281.91;;;6.58;49.40
63019;BME280;49105;46.046;10.760;2023-03-26T00:47:09;95275.09;;;6.62;49.36
63019;BME280;49105;46.046;10.760;2023-03-26T00:49:35;95270.13;;;6.65;49.07
63019;BME280;49105;46.046;10.760;2023-03-26T00:52:09;95269.63;;;6.68;48.94
63019;BME280;49105;46.046;10.760;2023-03-26T00:54:35;95257.81;;;6.76;48.58
63019;BME280;49105;46.046;10.760;2023-03-26T00:57:00;95260.97;;;6.73;48.62
63019;BME280;49105;46.046;10.760;2023-03-26T00:59:26;95265.63;;;6.56;48.89
63019;BME280;49105;46.046;10.760;2023-03-26T01:01:57;95270.69;;;6.20;49.86
63019;BME280;49105;46.046;10.760;2023-03-26T01:04:33;95273.81;;;6.17;50.08
63019;BME280;49105;46.046;10.760;2023-03-26T01:07:15;95271.50;;;6.26;49.59
63019;BME280;49105;46.046;10.760;2023-03-26T01:09:55;95266.78;;;6.28;49.78
63019;BME280;49105;46.046;10.760;2023-03-26T01:12:27;95263.34;;;6.22;49.95
63019;BME280;49105;46.046;10.760;2023-03-26T01:14:58;95249.38;;;6.16;49.99
63019;BME280;49105;46.046;10.760;2023-03-26T01:17:28;95251.81;;;6.28;49.87
63019;BME280;49105;46.046;10.760;2023-03-26T01:20:12;95235.81;;;6.35;49.34
63019;BME280;49105;46.046;10.760;2023-03-26T01:22:46;95234.50;;;6.37;49.55
63019;BME280;49105;46.046;10.760;2023-03-26T01:25:16;95232.03;;;6.20;49.79
63019;BME280;49105;46.046;10.760;2023-03-26T01:27:53;95220.47;;;6.16;50.00
63019;BME280;49105;46.046;10.760;2023-03-26T01:30:41;95213.69;;;6.26;49.82
63019;BME280;49105;46.046;10.760;2023-03-26T01:36:42;95213.81;;;6.04;50.24
63019;BME280;49105;46.046;10.760;2023-03-26T01:39:27;95208.84;;;6.02;50.28
63019;BME280;49105;46.046;10.760;2023-03-26T01:41:57;95198.13;;;6.14;49.72
63019;BME280;49105;46.046;10.760;2023-03-26T01:45:14;95205.59;;;6.37;49.52
63019;BME280;49105;46.046;10.760;2023-03-26T01:47:47;95207.38;;;6.21;49.54
63019;BME280;49105;46.046;10.760;2023-03-26T01:50:14;95194.75;;;6.18;49.77
63019;BME280;49105;46.046;10.760;2023-03-26T01:52:40;95193.97;;;6.23;49.59
63019;BME280;49105;46.046;10.760;2023-03-26T01:55:09;95197.41;;;6.29;49.97
63019;BME280;49105;46.046;10.760;2023-03-26T01:57:56;95197.69;;;6.32;49.63
63019;BME280;49105;46.046;10.760;2023-03-26T02:00:34;95197.09;;;6.20;49.80
63019;BME280;49105;46.046;10.760;2023-03-26T02:04:31;95206.78;;;6.09;49.72
63019;BME280;49105;46.046;10.760;2023-03-26T02:07:11;95198.91;;;6.09;50.17
63019;BME280;49105;46.046;10.760;2023-03-26T02:09:42;95208.06;;;6.07;49.94
63019;BME280;49105;46.046;10.760;2023-03-26T02:12:10;95207.78;;;6.03;50.49
63019;BME280;49105;46.046;10.760;2023-03-26T02:14:46;95203.34;;;6.09;50.01
63019;BME280;49105;46.046;10.760;2023-03-26T02:17:18;95201.28;;;6.16;49.97
63019;BME280;49105;46.046;10.760;2023-03-26T02:19:51;95210.19;;;6.10;49.95
63019;BME280;49105;46.046;10.760;2023-03-26T02:22:27;95204.34;;;5.97;50.47
63019;BME280;49105;46.046;10.760;2023-03-26T02:24:56;95205.38;;;5.96;50.19
63019;BME280;49105;46.046;10.760;2023-03-26T02:27:24;95202.25;;;6.00;50.05
63019;BME280;49105;46.046;10.760;2023-03-26T02:29:53;95204.53;;;5.91;50.57
63019;BME280;49105;46.046;10.760;2023-03-26T02:32:28;95202.06;;;5.74;50.88
63019;BME280;49105;46.046;10.760;2023-03-26T02:35:06;95200.72;;;5.71;50.88
63019;BME280;49105;46.046;10.760;2023-03-26T02:37:38;95205.22;;;5.76;50.50
63019;BME280;49105;46.046;10.760;2023-03-26T02:40:05;95205.00;;;5.83;50.59
63019;BME280;49105;46.046;10.760;2023-03-26T02:42:44;95206.38;;;5.90;50.35
63019;BME280;49105;46.046;10.760;2023-03-26T02:45:20;95198.53;;;5.95;50.17
63019;BME280;49105;46.046;10.760;2023-03-26T02:47:55;95194.84;;;5.96;50.51
63019;BME280;49105;46.046;10.760;2023-03-26T02:50:27;95192.56;;;5.68;50.73
63019;BME280;49105;46.046;10.760;2023-03-26T02:52:57;95195.06;;;5.53;51.11
63019;BME280;49105;46.046;10.760;2023-03-26T02:55:28;95194.84;;;5.59;50.90
63019;BME280;49105;46.046;10.760;2023-03-26T02:58:06;95194.16;;;5.69;50.89
63019;BME280;49105;46.046;10.760;2023-03-26T03:00:44;95188.94;;;5.74;51.23
63019;BME280;49105;46.046;10.760;2023-03-26T03:03:17;95177.66;;;5.79;50.92
63019;BME280;49105;46.046;10.760;2023-03-26T03:05:42;95189.78;;;5.85;50.69
63019;BME280;49105;46.046;10.760;2023-03-26T03:08:17;95180.59;;;5.87;50.37
63019;BME280;49105;46.046;10.760;2023-03-26T03:13:30;95164.91;;;5.92;50.81
63019;BME280;49105;46.046;10.760;2023-03-26T03:15:56;95173.25;;;5.84;50.55
63019;BME280;49105;46.046;10.760;2023-03-26T03:18:21;95174.50;;;5.77;50.60
63019;BME280;49105;46.046;10.760;2023-03-26T03:24:09;95178.25;;;5.48;51.34
63019;BME280;49105;46.046;10.760;2023-03-26T03:26:44;95175.94;;;5.57;50.98
63019;BME280;49105;46.046;10.760;2023-03-26T03:29:17;95177.91;;;5.72;50.69
63019;BME280;49105;46.046;10.760;2023-03-26T03:31:54;95183.50;;;5.86;50.66
63019;BME280;49105;46.046;10.760;2023-03-26T03:34:20;95184.28;;;5.86;50.87
63019;BME280;49105;46.046;10.760;2023-03-26T03:36:57;95179.66;;;5.99;50.53
63019;BME280;49105;46.046;10.760;2023-03-26T03:39:32;95178.63;;;6.05;50.34
63019;BME280;49105;46.046;10.760;2023-03-26T03:41:58;95184.41;;;6.02;50.67
63019;BME280;49105;46.046;10.760;2023-03-26T03:44:23;95176.13;;;5.88;50.94
63019;BME280;49105;46.046;10.760;2023-03-26T03:46:58;95179.53;;;5.83;50.94
63019;BME280;49105;46.046;10.760;2023-03-26T03:49:29;95174.38;;;5.93;50.73
63019;BME280;49105;46.046;10.760;2023-03-26T03:52:04;95181.00;;;6.01;50.43
63019;BME280;49105;46.046;10.760;2023-03-26T03:54:36;95177.69;;;5.84;50.58
63019;BME280;49105;46.046;10.760;2023-03-26T03:57:04;95161.63;;;5.75;50.99
63019;BME280;49105;46.046;10.760;2023-03-26T03:59:33;95158.69;;;5.66;51.51
63019;BME280;49105;46.046;10.760;2023-03-26T04:02:01;95150.47;;;5.58;51.09
63019;BME280;49105;46.046;10.760;2023-03-26T04:04:27;95151.50;;;5.52;51.39
63019;BME280;49105;46.046;10.760;2023-03-26T04:06:52;95151.97;;;5.43;51.40
63019;BME280;49105;46.046;10.760;2023-03-26T04:09:24;95146.16;;;5.41;51.48
63019;BME280;49105;46.046;10.760;2023-03-26T04:11:56;95137.00;;;5.44;51.26
63019;BME280;49105;46.046;10.760;2023-03-26T04:14:21;95132.94;;;5.26;51.84
63019;BME280;49105;46.046;10.760;2023-03-26T04:16:55;95134.91;;;5.09;52.06
63019;BME280;49105;46.046;10.760;2023-03-26T04:19:21;95136.94;;;5.02;52.41
63019;BME280;49105;46.046;10.760;2023-03-26T04:21:49;95130.06;;;4.95;52.43
63019;BME280;49105;46.046;10.760;2023-03-26T04:24:15;95128.78;;;4.98;52.51
63019;BME280;49105;46.046;10.760;2023-03-26T04:26:40;95128.56;;;5.05;52.15
63019;BME280;49105;46.046;10.760;2023-03-26T04:29:06;95132.31;;;5.14;52.04
63019;BME280;49105;46.046;10.760;2023-03-26T04:31:42;95129.44;;;5.15;52.20
63019;BME280;49105;46.046;10.760;2023-03-26T04:34:21;95141.81;;;5.20;51.48
63019;BME280;49105;46.046;10.760;2023-03-26T04:36:51;95135.56;;;5.26;51.56
63019;BME280;49105;46.046;10.760;2023-03-26T04:39:26;95137.91;;;5.22;51.60
63019;BME280;49105;46.046;10.760;2023-03-26T04:41:58;95134.47;;;5.22;51.63
63019;BME280;49105;46.046;10.760;2023-03-26T04:44:24;95129.91;;;5.07;51.68
63019;BME280;49105;46.046;10.760;2023-03-26T04:46:50;95130.31;;;4.94;51.98
63019;BME280;49105;46.046;10.760;2023-03-26T04:49:28;95136.84;;;4.91;52.08
63019;BME280;49105;46.046;10.760;2023-03-26T04:52:03;95140.56;;;4.95;52.34
63019;BME280;49105;46.046;10.760;2023-03-26T04:54:37;95132.09;;;4.88;52.26
63019;BME280;49105;46.046;10.760;2023-03-26T04:57:26;95125.00;;;4.89;52.34
63019;BME280;49105;46.046;10.760;2023-03-26T04:59:59;95120.56;;;4.89;52.19
63019;BME280;49105;46.046;10.760;2023-03-26T05:02:31;95120.78;;;4.83;52.65
63019;BME280;49105;46.046;10.760;2023-03-26T05:05:05;95120.03;;;4.87;52.64
63019;BME280;49105;46.046;10.760;2023-03-26T05:07:34;95118.75;;;4.90;52.33
63019;BME280;49105;46.046;10.760;2023-03-26T05:10:03;95127.41;;;4.90;52.00
63019;BME280;49105;46.046;10.760;2023-03-26T05:12:41;95117.94;;;4.89;52.47
63019;BME280;49105;46.046;10.760;2023-03-26T05:15:09;95119.84;;;4.94;52.17
63019;BME280;49105;46.046;10.760;2023-03-26T05:17:41;95118.81;;;5.00;52.17
63019;BME280;49105;46.046;10.760;2023-03-26T05:20:19;95120.22;;;5.08;51.91
63019;BME280;49105;46.046;10.760;2023-03-26T05:22:49;95124.97;;;5.11;51.46
63019;BME280;49105;46.046;10.760;2023-03-26T05:25:21;95127.66;;;5.21;51.33
63019;BME280;49105;46.046;10.760;2023-03-26T05:27:55;95121.31;;;5.17;51.62
63019;BME280;49105;46.046;10.760;2023-03-26T05:30:21;95127.78;;;5.04;51.85
63019;BME280;49105;46.046;10.760;2023-03-26T05:32:52;95125.94;;;5.05;51.72
63019;BME280;49105;46.046;10.760;2023-03-26T05:35:18;95129.63;;;5.04;51.74
63019;BME280;49105;46.046;10.760;2023-03-26T05:37:47;95120.09;;;4.97;52.11
63019;BME280;49105;46.046;10.760;2023-03-26T05:40:15;95121.72;;;4.98;52.19
63019;BME280;49105;46.046;10.760;2023-03-26T05:42:45;95118.81;;;5.00;52.17
63019;BME280;49105;46.046;10.760;2023-03-26T05:45:12;95132.03;;;5.10;51.74
63019;BME280;49105;46.046;10.760;2023-03-26T05:47:38;95122.97;;;5.23;51.34
63019;BME280;49105;46.046;10.760;2023-03-26T05:50:04;95128.72;;;5.25;51.44
63019;BME280;49105;46.046;10.760;2023-03-26T05:52:30;95132.41;;;4.92;52.44
63019;BME280;49105;46.046;10.760;2023-03-26T05:54:56;95135.91;;;4.76;52.75
63019;BME280;49105;46.046;10.760;2023-03-26T05:57:21;95144.34;;;4.78;52.75
63019;BME280;49105;46.046;10.760;2023-03-26T05:59:48;95149.91;;;4.86;52.99
63019;BME280;49105;46.046;10.760;2023-03-26T06:02:14;95151.56;;;4.97;52.76
63019;BME280;49105;46.046;10.760;2023-03-26T06:04:39;95154.34;;;5.13;52.65
63019;BME280;49105;46.046;10.760;2023-03-26T06:07:07;95151.81;;;5.23;52.23
63019;BME280;49105;46.046;10.760;2023-03-26T06:09:39;95152.34;;;5.25;52.20
63019;BME280;49105;46.046;10.760;2023-03-26T06:12:06;95154.97;;;5.25;52.36
63019;BME280;49105;46.046;10.760;2023-03-26T06:14:31;95152.91;;;5.27;52.27
63019;BME280;49105;46.046;10.760;2023-03-26T06:16:57;95157.91;;;5.34;52.38
63019;BME280;49105;46.046;10.760;2023-03-26T06:19:28;95159.03;;;5.43;51.95
63019;BME280;49105;46.046;10.760;2023-03-26T06:21:54;95148.31;;;5.50;52.22
63019;BME280;49105;46.046;10.760;2023-03-26T06:24:20;95146.25;;;5.52;52.15
63019;BME280;49105;46.046;10.760;2023-03-26T06:26:46;95149.69;;;5.57;51.54
63019;BME280;49105;46.046;10.760;2023-03-26T06:29:17;95150.97;;;5.55;51.88
63019;BME280;49105;46.046;10.760;2023-03-26T06:31:52;95153.00;;;5.42;52.28
63019;BME280;49105;46.046;10.760;2023-03-26T06:34:23;95143.47;;;5.31;52.64
63019;BME280;49105;46.046;10.760;2023-03-26T06:40:02;95147.75;;;5.42;52.70
63019;BME280;49105;46.046;10.760;2023-03-26T06:42:34;95140.00;;;5.63;52.62
63019;BME280;49105;46.046;10.760;2023-03-26T06:44:59;95127.78;;;5.84;52.44
63019;BME280;49105;46.046;10.760;2023-03-26T06:47:25;95126.06;;;6.00;52.18
63019;BME280;49105;46.046;10.760;2023-03-26T06:49:56;95123.22;;;6.11;51.77
63019;BME280;49105;46.046;10.760;2023-03-26T06:52:31;95119.88;;;6.26;51.57
63019;BME280;49105;46.046;10.760;2023-03-26T06:55:06;95121.25;;;6.44;51.33
63019;BME280;49105;46.046;10.760;2023-03-26T06:57:37;95114.19;;;6.55;51.48
63019;BME280;49105;46.046;10.760;2023-03-26T07:00:12;95094.47;;;6.52;51.35
63019;BME280;49105;46.046;10.760;2023-03-26T07:02:38;95087.34;;;6.58;51.28
63019;BME280;49105;46.046;10.760;2023-03-26T07:05:13;95082.91;;;6.68;51.18
63019;BME280;49105;46.046;10.760;2023-03-26T07:07:40;95087.66;;;6.77;51.01
63019;BME280;49105;46.046;10.760;2023-03-26T07:10:09;95082.94;;;6.84;50.55
63019;BME280;49105;46.046;10.760;2023-03-26T07:12:34;95074.25;;;6.99;50.47
63019;BME280;49105;46.046;10.760;2023-03-26T07:15:01;95059.78;;;7.06;50.59
63019;BME280;49105;46.046;10.760;2023-03-26T07:17:27;95052.94;;;7.10;50.31
63019;BME280;49105;46.046;10.760;2023-03-26T07:19:53;95065.31;;;7.10;50.27
63019;BME280;49105;46.046;10.760;2023-03-26T07:22:28;95064.00;;;7.12;49.88
63019;BME280;49105;46.046;10.760;2023-03-26T07:25:12;95057.41;;;7.25;49.75
63019;BME280;49105;46.046;10.760;2023-03-26T07:33:12;95042.09;;;7.58;49.00
63019;BME280;49105;46.046;10.760;2023-03-26T07:41:13;95025.66;;;7.86;48.64
63019;BME280;49105;46.046;10.760;2023-03-26T07:46:34;95024.75;;;8.11;48.49
63019;BME280;49105;46.046;10.760;2023-03-26T07:49:04;95018.13;;;8.19;48.33
63019;BME280;49105;46.046;10.760;2023-03-26T07:51:40;95010.44;;;8.23;48.12
63019;BME280;49105;46.046;10.760;2023-03-26T07:54:08;95008.03;;;8.31;48.14
63019;BME280;49105;46.046;10.760;2023-03-26T07:59:43;94991.88;;;8.48;47.58
63019;BME280;49105;46.046;10.760;2023-03-26T08:05:19;94971.84;;;8.81;47.18
63019;BME280;49105;46.046;10.760;2023-03-26T08:13:26;94965.72;;;9.15;46.33
63019;BME280;49105;46.046;10.760;2023-03-26T08:18:48;94960.72;;;9.37;46.20
63019;BME280;49105;46.046;10.760;2023-03-26T08:24:42;94947.47;;;9.85;44.91
63019;BME280;49105;46.046;10.760;2023-03-26T08:27:38;94936.34;;;10.07;45.04
63019;BME280;49105;46.046;10.760;2023-03-26T08:32:36;94925.72;;;10.31;44.70
63019;BME280;49105;46.046;10.760;2023-03-26T08:35:11;94924.06;;;10.35;44.42
63019;BME280;49105;46.046;10.760;2023-03-26T08:37:43;94916.22;;;10.30;43.74
63019;BME280;49105;46.046;10.760;2023-03-26T08:40:10;94907.75;;;10.28;44.07
63019;BME280;49105;46.046;10.760;2023-03-26T08:43:02;94908.97;;;10.36;44.08
63019;BME280;49105;46.046;10.760;2023-03-26T09:06:35;94868.09;;;10.61;43.62
63019;BME280;49105;46.046;10.760;2023-03-26T09:20:31;94824.19;;;11.15;42.66
63019;BME280;49105;46.046;10.760;2023-03-26T09:40:18;94791.69;;;11.87;41.46
63019;BME280;49105;46.046;10.760;2023-03-26T10:02:41;94712.53;;;12.74;39.34
63019;BME280;49105;46.046;10.760;2023-03-26T10:05:17;94695.88;;;12.90;38.98
63019;BME280;49105;46.046;10.760;2023-03-26T10:08:01;94691.69;;;13.07;37.63
63019;BME280;49105;46.046;10.760;2023-03-26T10:13:38;94667.50;;;13.26;36.97
63019;BME280;49105;46.046;10.760;2023-03-26T10:19:27;94656.25;;;13.46;37.31
63019;BME280;49105;46.046;10.760;2023-03-26T10:27:50;94657.59;;;13.78;38.13
63019;BME280;49105;46.046;10.760;2023-03-26T10:38:57;94659.28;;;13.92;37.42
63019;BME280;49105;46.046;10.760;2023-03-26T10:41:52;94666.16;;;13.93;37.18
63019;BME280;49105;46.046;10.760;2023-03-26T10:53:02;94624.97;;;13.99;37.00
63019;BME280;49105;46.046;10.760;2023-03-26T10:55:45;94626.25;;;14.01;36.35
63019;BME280;49105;46.046;10.760;2023-03-26T10:58:26;94623.25;;;14.03;36.04
63019;BME280;49105;46.046;10.760;2023-03-26T11:01:03;94617.94;;;14.03;36.08
63019;BME280;49105;46.046;10.760;2023-03-26T11:17:44;94592.84;;;13.74;36.58
63019;BME280;49105;46.046;10.760;2023-03-26T11:20:21;94590.81;;;13.71;36.72
63019;BME280;49105;46.046;10.760;2023-03-26T11:29:03;94576.13;;;13.65;37.16
63019;BME280;49105;46.046;10.760;2023-03-26T11:37:40;94572.53;;;13.61;38.24
63019;BME280;49105;46.046;10.760;2023-03-26T11:40:17;94567.72;;;13.54;37.97
63019;BME280;49105;46.046;10.760;2023-03-26T11:42:46;94560.22;;;13.48;38.15
63019;BME280;49105;46.046;10.760;2023-03-26T11:45:22;94565.41;;;13.44;38.84
63019;BME280;49105;46.046;10.760;2023-03-26T11:48:16;94569.00;;;13.39;38.84
63019;BME280;49105;46.046;10.760;2023-03-26T11:50:54;94578.69;;;13.35;39.08
63019;BME280;49105;46.046;10.760;2023-03-26T11:53:26;94575.59;;;13.33;39.64
63019;BME280;49105;46.046;10.760;2023-03-26T11:56:36;94591.53;;;13.33;39.86
63019;BME280;49105;46.046;10.760;2023-03-26T11:58:57;94586.84;;;13.30;39.59
63019;BME280;49105;46.046;10.760;2023-03-26T12:01:28;94590.25;;;13.22;40.75
63019;BME280;49105;46.046;10.760;2023-03-26T12:04:04;94580.59;;;13.09;41.45
63019;BME280;49105;46.046;10.760;2023-03-26T12:06:31;94591.50;;;12.99;41.85
63019;BME280;49105;46.046;10.760;2023-03-26T12:09:02;94584.66;;;12.89;42.70
63019;BME280;49105;46.046;10.760;2023-03-26T12:11:30;94569.19;;;12.82;42.44
63019;BME280;49105;46.046;10.760;2023-03-26T12:14:00;94574.47;;;12.82;42.52
63019;BME280;49105;46.046;10.760;2023-03-26T12:16:34;94573.88;;;12.85;43.11
63019;BME280;49105;46.046;10.760;2023-03-26T12:19:18;94574.66;;;12.86;43.02
63019;BME280;49105;46.046;10.760;2023-03-26T12:21:51;94561.22;;;12.82;43.06
63019;BME280;49105;46.046;10.760;2023-03-26T12:27:01;94550.25;;;12.66;43.39
63019;BME280;49105;46.046;10.760;2023-03-26T12:29:49;94546.38;;;12.64;43.68
63019;BME280;49105;46.046;10.760;2023-03-26T12:32:15;94548.56;;;12.62;43.63
63019;BME280;49105;46.046;10.760;2023-03-26T12:34:41;94540.44;;;12.58;44.08
63019;BME280;49105;46.046;10.760;2023-03-26T12:37:35;94530.91;;;12.57;43.98
63019;BME280;49105;46.046;10.760;2023-03-26T12:40:32;94519.50;;;12.57;44.08
63019;BME280;49105;46.046;10.760;2023-03-26T12:43:24;94529.50;;;12.60;44.06
63019;BME280;49105;46.046;10.760;2023-03-26T12:45:59;94531.69;;;12.58;44.13
63019;BME280;49105;46.046;10.760;2023-03-26T12:48:24;94520.91;;;12.63;44.32
63019;BME280;49105;46.046;10.760;2023-03-26T12:57:35;94500.44;;;12.98;43.79
63019;BME280;49105;46.046;10.760;2023-03-26T13:10:31;94491.56;;;12.85;44.42
63019;BME280;49105;46.046;10.760;2023-03-26T13:15:51;94479.22;;;12.89;44.34
63019;BME280;49105;46.046;10.760;2023-03-26T13:29:50;94505.13;;;12.40;45.97
63019;BME280;49105;46.046;10.760;2023-03-26T13:35:26;94502.16;;;12.51;45.85
63019;BME280;49105;46.046;10.760;2023-03-26T13:43:29;94478.91;;;12.22;47.30
63019;BME280;49105;46.046;10.760;2023-03-26T13:46:02;94482.97;;;12.19;48.12
63019;BME280;49105;46.046;10.760;2023-03-26T13:48:58;94475.78;;;12.11;48.88
63019;BME280;49105;46.046;10.760;2023-03-26T13:54:33;94476.88;;;12.10;48.88
63019;BME280;49105;46.046;10.760;2023-03-26T13:57:24;94469.22;;;12.08;49.80
63019;BME280;49105;46.046;10.760;2023-03-26T14:00:12;94474.50;;;12.08;49.53
63019;BME280;49105;46.046;10.760;2023-03-26T14:02:56;94488.38;;;12.05;49.50
63019;BME280;49105;46.046;10.760;2023-03-26T14:08:11;94472.34;;;12.02;49.18
63019;BME280;49105;46.046;10.760;2023-03-26T14:10:53;94458.28;;;12.01;49.36
63019;BME280;49105;46.046;10.760;2023-03-26T14:13:30;94447.66;;;12.01;49.30
63019;BME280;49105;46.046;10.760;2023-03-26T14:16:17;94444.22;;;12.01;49.47
63019;BME280;49105;46.046;10.760;2023-03-26T14:18:59;94435.66;;;12.04;49.32
63019;BME280;49105;46.046;10.760;2023-03-26T14:28:01;94417.59;;;12.06;49.66
63019;BME280;49105;46.046;10.760;2023-03-26T14:34:17;94412.41;;;12.01;50.02
63019;BME280;49105;46.046;10.760;2023-03-26T14:39:17;94418.97;;;11.95;50.48
63019;BME280;49105;46.046;10.760;2023-03-26T14:41:55;94411.00;;;11.86;51.01
63019;BME280;49105;46.046;10.760;2023-03-26T14:53:33;94427.94;;;11.67;51.53
63019;BME280;49105;46.046;10.760;2023-03-26T15:10:16;94413.31;;;11.30;53.73
63019;BME280;49105;46.046;10.760;2023-03-26T15:13:14;94417.81;;;11.21;55.00
63019;BME280;49105;46.046;10.760;2023-03-26T15:16:02;94410.63;;;11.13;55.25
63019;BME280;49105;46.046;10.760;2023-03-26T15:21:35;94403.59;;;11.08;55.49
63019;BME280;49105;46.046;10.760;2023-03-26T15:24:18;94396.06;;;11.02;55.31
63019;BME280;49105;46.046;10.760;2023-03-26T15:32:42;94367.88;;;10.97;55.93
63019;BME280;49105;46.046;10.760;2023-03-26T15:38:39;94351.63;;;10.90;55.88
63019;BME280;49105;46.046;10.760;2023-03-26T15:47:24;94362.75;;;10.69;56.39
63019;BME280;49105;46.046;10.760;2023-03-26T15:50:00;94362.75;;;10.69;56.71
63019;BME280;49105;46.046;10.760;2023-03-26T15:52:49;94365.72;;;10.68;56.59
63019;BME280;49105;46.046;10.760;2023-03-26T15:55:39;94350.44;;;10.65;57.18
63019;BME280;49105;46.046;10.760;2023-03-26T16:04:05;94302.81;;;10.65;57.20
63019;BME280;49105;46.046;10.760;2023-03-26T16:06:36;94286.72;;;10.53;57.23
63019;BME280;49105;46.046;10.760;2023-03-26T16:09:14;94298.53;;;10.47;57.65
63019;BME280;49105;46.046;10.760;2023-03-26T16:11:55;94325.78;;;10.47;58.04
63019;BME280;49105;46.046;10.760;2023-03-26T16:17:01;94306.72;;;10.36;61.17
63019;BME280;49105;46.046;10.760;2023-03-26T16:19:49;94300.31;;;10.29;61.91
63019;BME280;49105;46.046;10.760;2023-03-26T16:25:25;94299.59;;;10.37;59.83
63019;BME280;49105;46.046;10.760;2023-03-26T16:28:25;94310.63;;;10.39;60.06
63019;BME280;49105;46.046;10.760;2023-03-26T16:33:37;94299.63;;;10.46;59.82
63019;BME280;49105;46.046;10.760;2023-03-26T16:38:54;94311.41;;;10.39;60.83
63019;BME280;49105;46.046;10.760;2023-03-26T16:41:28;94305.00;;;10.32;61.27
63019;BME280;49105;46.046;10.760;2023-03-26T16:52:20;94283.13;;;10.17;60.42
63019;BME280;49105;46.046;10.760;2023-03-26T16:54:53;94291.19;;;10.12;60.41
63019;BME280;49105;46.046;10.760;2023-03-26T17:03:45;94278.75;;;10.13;60.68
63019;BME280;49105;46.046;10.760;2023-03-26T17:14:50;94275.09;;;10.00;61.01
63019;BME280;49105;46.046;10.760;2023-03-26T17:26:20;94252.03;;;9.92;60.82
63019;BME280;49105;46.046;10.760;2023-03-26T17:29:17;94243.47;;;9.95;60.58
63019;BME280;49105;46.046;10.760;2023-03-26T17:32:05;94217.34;;;9.93;61.01
63019;BME280;49105;46.046;10.760;2023-03-26T17:42:33;94135.69;;;9.83;61.83
63019;BME280;49105;46.046;10.760;2023-03-26T17:47:50;94127.25;;;9.73;62.79
63019;BME280;49105;46.046;10.760;2023-03-26T17:50:30;94144.97;;;9.72;63.28
63019;BME280;49105;46.046;10.760;2023-03-26T17:53:00;94147.13;;;9.70;63.53
63019;BME280;49105;46.046;10.760;2023-03-26T17:55:37;94152.22;;;9.66;62.95
63019;BME280;49105;46.046;10.760;2023-03-26T17:58:33;94158.91;;;9.64;62.98
63019;BME280;49105;46.046;10.760;2023-03-26T18:01:22;94181.59;;;9.65;62.99
63019;BME280;49105;46.046;10.760;2023-03-26T18:03:54;94201.03;;;9.69;62.08
63019;BME280;49105;46.046;10.760;2023-03-26T18:06:32;94207.88;;;9.70;61.95
63019;BME280;49105;46.046;10.760;2023-03-26T18:12:03;94218.81;;;9.77;62.28
63019;BME280;49105;46.046;10.760;2023-03-26T18:14:41;94227.34;;;9.74;61.78
63019;BME280;49105;46.046;10.760;2023-03-26T18:17:11;94229.78;;;9.70;62.37
63019;BME280;49105;46.046;10.760;2023-03-26T18:19:54;94226.69;;;9.68;62.06
63019;BME280;49105;46.046;10.760;2023-03-26T18:22:27;94220.13;;;9.66;62.37
63019;BME280;49105;46.046;10.760;2023-03-26T18:24:57;94216.53;;;9.62;62.59
63019;BME280;49105;46.046;10.760;2023-03-26T18:27:38;94225.34;;;9.57;63.48
63019;BME280;49105;46.046;10.760;2023-03-26T18:30:14;94220.19;;;9.52;63.57
63019;BME280;49105;46.046;10.760;2023-03-26T18:33:01;94201.22;;;9.50;63.31
63019;BME280;49105;46.046;10.760;2023-03-26T18:38:15;94178.34;;;9.45;64.19
63019;BME280;49105;46.046;10.760;2023-03-26T18:40:44;94174.94;;;9.45;63.61
63019;BME280;49105;46.046;10.760;2023-03-26T18:43:15;94160.66;;;9.46;63.53
63019;BME280;49105;46.046;10.760;2023-03-26T18:45:49;94156.16;;;9.47;63.18
63019;BME280;49105;46.046;10.760;2023-03-26T18:48:23;94164.25;;;9.50;63.15
63019;BME280;49105;46.046;10.760;2023-03-26T18:51:00;94178.16;;;9.42;63.09
63019;BME280;49105;46.046;10.760;2023-03-26T18:53:39;94194.25;;;9.32;63.21
63019;BME280;49105;46.046;10.760;2023-03-26T18:56:29;94200.44;;;9.27;63.34
63019;BME280;49105;46.046;10.760;2023-03-26T18:58:59;94202.00;;;9.28;63.50
63019;BME280;49105;46.046;10.760;2023-03-26T19:01:28;94208.75;;;9.34;63.22
63019;BME280;49105;46.046;10.760;2023-03-26T19:04:03;94205.78;;;9.36;62.73
63019;BME280;49105;46.046;10.760;2023-03-26T19:06:31;94186.72;;;9.39;62.47
63019;BME280;49105;46.046;10.760;2023-03-26T19:09:08;94178.16;;;9.42;62.86
63019;BME280;49105;46.046;10.760;2023-03-26T19:11:55;94168.22;;;9.39;62.41
63019;BME280;49105;46.046;10.760;2023-03-26T19:14:21;94166.56;;;9.43;62.16